sensor_id;sensor_type;location;lat;lon;timestamp;temperature;humidity
1181;DHT22;579;52.046;8.532;2023-05-08T00:01:42;14.30;1.00
1181;DHT22;579;52.046;8.532;2023-05-08T00:04:09;14.50;1.00
1181;DHT22;579;52.046;8.532;2023-05-08T00:06:35;14.50;1.00
1181;DHT22;579;52.046;8.532;2023-05-08T00:09:01;14.50;1.00
1181;DHT22;579;52.046;8.532;2023-05-08T00:11:27;14.20;1.00
1181;DHT22;579;52.046;8.532;2023-05-08T00:13:54;14.30;1.00
1181;DHT22;579;52.046;8.532;2023-05-08T00:19:00;14.30;1.00
1181;DHT22;579;52.046;8.532;2023-05-08T00:21:27;14.10;1.00
1181;DHT22;579;52.046;8.532;2023-05-08T00:23:54;14.10;1.00
1181;DHT22;579;52.046;8.532;2023-05-08T00:26:20;14.20;1.00
1181;DHT22;579;52.046;8.532;2023-05-08T00:28:46;14.00;1.00
1181;DHT22;579;52.046;8.532;2023-05-08T00:31:13;13.90;1.00
1181;DHT22;579;52.046;8.532;2023-05-08T00:33:39;14.10;1.00
1181;DHT22;579;52.046;8.532;2023-05-08T00:41:04;14.10;1.00
1181;DHT22;579;52.046;8.532;2023-05-08T00:43:30;14.30;1.00
1181;DHT22;579;52.046;8.532;2023-05-08T00:45:59;14.00;1.00
1181;DHT22;579;52.046;8.532;2023-05-08T00:48:27;14.00;1.00
1181;DHT22;579;52.046;8.532;2023-05-08T00:50:55;14.10;1.00
1181;DHT22;579;52.046;8.532;2023-05-08T00:53:22;14.10;1.00
1181;DHT22;579;52.046;8.532;2023-05-08T00:55:51;14.00;1.00
1181;DHT22;579;52.046;8.532;2023-05-08T01:02:06;13.90;1.00
1181;DHT22;579;52.046;8.532;2023-05-08T01:04:34;14.00;1.00
1181;DHT22;579;52.046;8.532;2023-05-08T01:07:02;14.20;1.00
1181;DHT22;579;52.046;8.532;2023-05-08T01:09:28;14.10;1.00
1181;DHT22;579;52.046;8.532;2023-05-08T01:12:06;14.00;1.00
1181;DHT22;579;52.046;8.532;2023-05-08T01:14:44;14.00;1.00
1181;DHT22;579;52.046;8.532;2023-05-08T01:27:23;13.90;1.00
1181;DHT22;579;52.046;8.532;2023-05-08T01:30:28;13.70;1.00
1181;DHT22;579;52.046;8.532;2023-05-08T01:33:17;13.80;1.00
1181;DHT22;579;52.046;8.532;2023-05-08T01:35:49;13.80;1.00
1181;DHT22;579;52.046;8.532;2023-05-08T01:38:26;13.70;1.00
1181;DHT22;579;52.046;8.532;2023-05-08T01:45:12;13.70;1.00
1181;DHT22;579;52.046;8.532;2023-05-08T01:47:43;13.40;1.00
1181;DHT22;579;52.046;8.532;2023-05-08T01:50:15;13.40;1.00
1181;DHT22;579;52.046;8.532;2023-05-08T01:52:47;13.50;1.00
1181;DHT22;579;52.046;8.532;2023-05-08T01:55:20;13.50;1.00
1181;DHT22;579;52.046;8.532;2023-05-08T01:57:53;13.70;1.00
1181;DHT22;579;52.046;8.532;2023-05-08T02:00:22;13.70;1.00
1181;DHT22;579;52.046;8.532;2023-05-08T02:06:37;13.70;1.00
1181;DHT22;579;52.046;8.532;2023-05-08T02:09:07;13.60;1.00
1181;DHT22;579;52.046;8.532;2023-05-08T02:11:36;13.50;1.00
1181;DHT22;579;52.046;8.532;2023-05-08T02:14:03;13.60;1.00
1181;DHT22;579;52.046;8.532;2023-05-08T02:16:30;13.60;1.00
1181;DHT22;579;52.046;8.532;2023-05-08T02:18:58;13.50;1.00
1181;DHT22;579;52.046;8.532;2023-05-08T02:21:25;13.40;1.00
1181;DHT22;579;52.046;8.532;2023-05-08T02:24:20;13.50;1.00
1181;DHT22;579;52.046;8.532;2023-05-08T02:26:47;13.50;1.00
1181;DHT22;579;52.046;8.532;2023-05-08T02:29:15;13.40;1.00
1181;DHT22;579;52.046;8.532;2023-05-08T02:31:42;13.30;1.00
1181;DHT22;579;52.046;8.532;2023-05-08T02:34:11;13.40;1.00
1181;DHT22;579;52.046;8.532;2023-05-08T02:36:38;13.40;1.00
1181;DHT22;579;52.046;8.532;2023-05-08T02:39:05;13.30;1.00
1181;DHT22;579;52.046;8.532;2023-05-08T02:46:48;13.30;1.00
1181;DHT22;579;52.046;8.532;2023-05-08T02:49:26;13.20;1.00
1181;DHT22;579;52.046;8.532;2023-05-08T02:52:01;13.10;1.00
1181;DHT22;579;52.046;8.532;2023-05-08T02:54:35;13.00;1.00
1181;DHT22;579;52.046;8.532;2023-05-08T02:57:09;13.00;1.00
1181;DHT22;579;52.046;8.532;2023-05-08T02:59:45;13.00;1.00
1181;DHT22;579;52.046;8.532;2023-05-08T03:05:18;12.80;1.00
1181;DHT22;579;52.046;8.532;2023-05-08T03:07:49;12.90;1.00
1181;DHT22;579;52.046;8.532;2023-05-08T03:10:20;12.90;1.00
1181;DHT22;579;52.046;8.532;2023-05-08T03:12:49;12.70;1.00
1181;DHT22;579;52.046;8.532;2023-05-08T03:15:22;12.80;1.00
1181;DHT22;579;52.046;8.532;2023-05-08T03:17:53;12.80;1.00
1181;DHT22;579;52.046;8.532;2023-05-08T03:20:24;12.80;1.00
1181;DHT22;579;52.046;8.532;2023-05-08T03:27:07;12.80;1.00
1181;DHT22;579;52.046;8.532;2023-05-08T03:29:35;12.80;1.00
1181;DHT22;579;52.046;8.532;2023-05-08T03:32:04;12.70;1.00
1181;DHT22;579;52.046;8.532;2023-05-08T03:34:32;12.50;1.00
1181;DHT22;579;52.046;8.532;2023-05-08T03:36:59;12.40;1.00
1181;DHT22;579;52.046;8.532;2023-05-08T03:39:25;12.50;1.00
1181;DHT22;579;52.046;8.532;2023-05-08T03:41:52;12.60;1.00
1181;DHT22;579;52.046;8.532;2023-05-08T03:46:58;12.60;1.00
1181;DHT22;579;52.046;8.532;2023-05-08T03:49:25;12.70;1.00
1181;DHT22;579;52.046;8.532;2023-05-08T03:51:52;12.80;1.00
1181;DHT22;579;52.046;8.532;2023-05-08T03:54:20;12.80;1.00
1181;DHT22;579;52.046;8.532;2023-05-08T03:56:50;12.60;1.00
1181;DHT22;579;52.046;8.532;2023-05-08T03:59:22;12.70;1.00
1181;DHT22;579;52.046;8.532;2023-05-08T04:01:56;12.70;1.00
1181;DHT22;579;52.046;8.532;2023-05-08T04:07:07;12.60;1.00
1181;DHT22;579;52.046;8.532;2023-05-08T04:09:42;12.50;1.00
1181;DHT22;579;52.046;8.532;2023-05-08T04:12:15;12.50;1.00
1181;DHT22;579;52.046;8.532;2023-05-08T04:14:46;12.60;1.00
1181;DHT22;579;52.046;8.532;2023-05-08T04:20:02;12.70;1.00
1181;DHT22;579;52.046;8.532;2023-05-08T04:22:32;12.60;1.00
1181;DHT22;579;52.046;8.532;2023-05-08T04:30:05;12.60;1.00
1181;DHT22;579;52.046;8.532;2023-05-08T04:32:34;12.70;1.00
1181;DHT22;579;52.046;8.532;2023-05-08T04:35:01;12.70;1.00
1181;DHT22;579;52.046;8.532;2023-05-08T04:37:29;12.70;1.00
1181;DHT22;579;52.046;8.532;2023-05-08T04:39:56;12.70;1.00
1181;DHT22;579;52.046;8.532;2023-05-08T04:42:23;12.80;1.00
1181;DHT22;579;52.046;8.532;2023-05-08T04:44:50;12.80;1.00
1181;DHT22;579;52.046;8.532;2023-05-08T04:51:40;13.10;1.00
1181;DHT22;579;52.046;8.532;2023-05-08T04:54:06;13.00;1.00
1181;DHT22;579;52.046;8.532;2023-05-08T04:56:32;13.20;1.00
1181;DHT22;579;52.046;8.532;2023-05-08T04:58:58;13.30;1.00
1181;DHT22;579;52.046;8.532;2023-05-08T05:01:25;13.30;1.00
1181;DHT22;579;52.046;8.532;2023-05-08T05:03:51;13.40;1.00
1181;DHT22;579;52.046;8.532;2023-05-08T05:06:17;13.50;1.00
1181;DHT22;579;52.046;8.532;2023-05-08T05:11:17;13.30;1.00
1181;DHT22;579;52.046;8.532;2023-05-08T05:13:44;13.20;1.00
1181;DHT22;579;52.046;8.532;2023-05-08T05:16:10;13.50;1.00
1181;DHT22;579;52.046;8.532;2023-05-08T05:18:37;13.60;1.00
1181;DHT22;579;52.046;8.532;2023-05-08T05:21:04;13.80;1.00
1181;DHT22;579;52.046;8.532;2023-05-08T05:23:31;13.80;1.00
1181;DHT22;579;52.046;8.532;2023-05-08T05:25:58;13.90;1.00
1181;DHT22;579;52.046;8.532;2023-05-08T05:32:04;13.60;1.00
1181;DHT22;579;52.046;8.532;2023-05-08T05:34:32;13.60;1.00
1181;DHT22;579;52.046;8.532;2023-05-08T05:36:58;13.70;1.00
1181;DHT22;579;52.046;8.532;2023-05-08T05:39:27;13.70;1.00
1181;DHT22;579;52.046;8.532;2023-05-08T05:41:54;13.70;1.00
1181;DHT22;579;52.046;8.532;2023-05-08T05:44:21;13.60;1.00
1181;DHT22;579;52.046;8.532;2023-05-08T05:46:47;13.80;1.00
1181;DHT22;579;52.046;8.532;2023-05-08T05:51:54;14.00;1.00
1181;DHT22;579;52.046;8.532;2023-05-08T05:54:21;14.20;1.00
1181;DHT22;579;52.046;8.532;2023-05-08T05:56:47;14.40;1.00
1181;DHT22;579;52.046;8.532;2023-05-08T05:59:14;14.70;1.00
1181;DHT22;579;52.046;8.532;2023-05-08T06:01:40;14.90;1.00
1181;DHT22;579;52.046;8.532;2023-05-08T06:04:06;15.00;1.00
1181;DHT22;579;52.046;8.532;2023-05-08T06:06:32;14.80;1.00
1181;DHT22;579;52.046;8.532;2023-05-08T06:14:04;15.00;1.00
1181;DHT22;579;52.046;8.532;2023-05-08T06:16:31;15.00;1.00
1181;DHT22;579;52.046;8.532;2023-05-08T06:18:57;15.10;1.00
1181;DHT22;579;52.046;8.532;2023-05-08T06:21:23;15.00;1.00
1181;DHT22;579;52.046;8.532;2023-05-08T06:23:50;15.40;1.00
1181;DHT22;579;52.046;8.532;2023-05-08T06:26:16;15.60;1.00
1181;DHT22;579;52.046;8.532;2023-05-08T06:28:42;15.80;1.00
1181;DHT22;579;52.046;8.532;2023-05-08T06:36:14;16.00;1.00
1181;DHT22;579;52.046;8.532;2023-05-08T06:38:41;15.90;1.00
1181;DHT22;579;52.046;8.532;2023-05-08T06:41:08;16.20;1.00
1181;DHT22;579;52.046;8.532;2023-05-08T06:43:34;16.30;1.00
1181;DHT22;579;52.046;8.532;2023-05-08T06:46:00;16.60;1.00
1181;DHT22;579;52.046;8.532;2023-05-08T06:48:26;16.90;1.00
1181;DHT22;579;52.046;8.532;2023-05-08T06:50:53;17.00;1.00
1181;DHT22;579;52.046;8.532;2023-05-08T06:58:22;17.20;1.00
1181;DHT22;579;52.046;8.532;2023-05-08T07:00:49;17.10;1.00
1181;DHT22;579;52.046;8.532;2023-05-08T07:03:15;17.10;1.00
1181;DHT22;579;52.046;8.532;2023-05-08T07:05:41;17.10;1.00
1181;DHT22;579;52.046;8.532;2023-05-08T07:08:08;16.90;1.00
1181;DHT22;579;52.046;8.532;2023-05-08T07:10:34;17.00;1.00
1181;DHT22;579;52.046;8.532;2023-05-08T07:13:00;16.90;1.00
1181;DHT22;579;52.046;8.532;2023-05-08T07:20:29;17.40;1.00
1181;DHT22;579;52.046;8.532;2023-05-08T07:22:56;17.50;1.00
1181;DHT22;579;52.046;8.532;2023-05-08T07:25:22;17.70;1.00
1181;DHT22;579;52.046;8.532;2023-05-08T07:27:48;17.70;1.00
1181;DHT22;579;52.046;8.532;2023-05-08T07:30:15;17.70;1.00
1181;DHT22;579;52.046;8.532;2023-05-08T07:32:41;17.70;1.00
1181;DHT22;579;52.046;8.532;2023-05-08T07:35:08;17.70;1.00
1181;DHT22;579;52.046;8.532;2023-05-08T07:37:36;17.70;1.00
1181;DHT22;579;52.046;8.532;2023-05-08T07:45:04;17.30;1.00
1181;DHT22;579;52.046;8.532;2023-05-08T07:47:31;17.00;1.00
1181;DHT22;579;52.046;8.532;2023-05-08T07:49:58;17.00;1.00
1181;DHT22;579;52.046;8.532;2023-05-08T07:52:24;17.00;1.00
1181;DHT22;579;52.046;8.532;2023-05-08T07:54:50;17.20;1.00
1181;DHT22;579;52.046;8.532;2023-05-08T07:57:16;17.70;1.00
1181;DHT22;579;52.046;8.532;2023-05-08T07:59:42;18.00;1.00
1181;DHT22;579;52.046;8.532;2023-05-08T08:08:21;18.80;1.00
1181;DHT22;579;52.046;8.532;2023-05-08T08:10:48;18.80;1.00
1181;DHT22;579;52.046;8.532;2023-05-08T08:13:15;18.80;1.00
1181;DHT22;579;52.046;8.532;2023-05-08T08:15:41;18.90;1.00
1181;DHT22;579;52.046;8.532;2023-05-08T08:18:08;18.80;1.00
1181;DHT22;579;52.046;8.532;2023-05-08T08:20:34;19.00;1.00
1181;DHT22;579;52.046;8.532;2023-05-08T08:23:00;19.30;1.00
1181;DHT22;579;52.046;8.532;2023-05-08T08:28:20;19.50;1.00
1181;DHT22;579;52.046;8.532;2023-05-08T08:30:47;20.60;1.00
1181;DHT22;579;52.046;8.532;2023-05-08T08:33:13;20.80;1.00
1181;DHT22;579;52.046;8.532;2023-05-08T08:35:39;21.00;1.00
1181;DHT22;579;52.046;8.532;2023-05-08T08:38:05;21.20;1.00
1181;DHT22;579;52.046;8.532;2023-05-08T08:40:31;21.40;1.00
1181;DHT22;579;52.046;8.532;2023-05-08T08:42:58;21.60;1.00
1181;DHT22;579;52.046;8.532;2023-05-08T08:48:09;22.00;1.00
1181;DHT22;579;52.046;8.532;2023-05-08T08:50:40;22.40;1.00
1181;DHT22;579;52.046;8.532;2023-05-08T08:53:10;22.40;1.00
1181;DHT22;579;52.046;8.532;2023-05-08T08:55:43;22.60;1.00
1181;DHT22;579;52.046;8.532;2023-05-08T08:58:17;22.60;1.00
1181;DHT22;579;52.046;8.532;2023-05-08T09:00:47;23.00;1.00
1181;DHT22;579;52.046;8.532;2023-05-08T09:03:15;23.20;1.00
1181;DHT22;579;52.046;8.532;2023-05-08T09:10:45;23.40;1.00
1181;DHT22;579;52.046;8.532;2023-05-08T09:13:11;23.40;1.00
1181;DHT22;579;52.046;8.532;2023-05-08T09:15:38;23.50;1.00
1181;DHT22;579;52.046;8.532;2023-05-08T09:18:04;23.70;1.00
1181;DHT22;579;52.046;8.532;2023-05-08T09:20:30;23.80;1.00
1181;DHT22;579;52.046;8.532;2023-05-08T09:23:00;24.10;1.00
1181;DHT22;579;52.046;8.532;2023-05-08T09:25:40;24.10;1.00
1181;DHT22;579;52.046;8.532;2023-05-08T09:30:57;24.20;1.00
1181;DHT22;579;52.046;8.532;2023-05-08T09:33:25;24.80;1.00
1181;DHT22;579;52.046;8.532;2023-05-08T09:35:52;25.00;1.00
1181;DHT22;579;52.046;8.532;2023-05-08T09:38:32;25.30;1.00
1181;DHT22;579;52.046;8.532;2023-05-08T09:41:06;25.30;1.00
1181;DHT22;579;52.046;8.532;2023-05-08T09:43:33;25.20;1.00
1181;DHT22;579;52.046;8.532;2023-05-08T09:46:19;25.50;1.00
1181;DHT22;579;52.046;8.532;2023-05-08T09:51:28;26.00;1.00
1181;DHT22;579;52.046;8.532;2023-05-08T09:53:56;26.20;1.00
1181;DHT22;579;52.046;8.532;2023-05-08T09:56:34;26.40;1.00
1181;DHT22;579;52.046;8.532;2023-05-08T09:59:02;26.50;1.00
1181;DHT22;579;52.046;8.532;2023-05-08T10:01:31;26.90;1.00
1181;DHT22;579;52.046;8.532;2023-05-08T10:03:58;27.00;1.00
1181;DHT22;579;52.046;8.532;2023-05-08T10:06:25;27.10;1.00
1181;DHT22;579;52.046;8.532;2023-05-08T10:14:10;27.10;1.00
1181;DHT22;579;52.046;8.532;2023-05-08T10:16:40;27.50;1.00
1181;DHT22;579;52.046;8.532;2023-05-08T10:19:11;27.30;1.00
1181;DHT22;579;52.046;8.532;2023-05-08T10:21:41;27.10;1.00
1181;DHT22;579;52.046;8.532;2023-05-08T10:24:14;27.20;1.00
1181;DHT22;579;52.046;8.532;2023-05-08T10:26:43;27.50;1.00
1181;DHT22;579;52.046;8.532;2023-05-08T10:29:20;27.60;1.00
1181;DHT22;579;52.046;8.532;2023-05-08T10:34:30;27.80;1.00
1181;DHT22;579;52.046;8.532;2023-05-08T10:36:57;28.00;1.00
1181;DHT22;579;52.046;8.532;2023-05-08T10:39:24;27.00;1.00
1181;DHT22;579;52.046;8.532;2023-05-08T10:41:50;28.10;1.00
1181;DHT22;579;52.046;8.532;2023-05-08T10:44:16;27.80;1.00
1181;DHT22;579;52.046;8.532;2023-05-08T10:46:50;27.60;1.00
1181;DHT22;579;52.046;8.532;2023-05-08T10:49:24;27.30;1.00
1181;DHT22;579;52.046;8.532;2023-05-08T10:59:16;26.50;1.00
1181;DHT22;579;52.046;8.532;2023-05-08T11:01:46;27.00;1.00
1181;DHT22;579;52.046;8.532;2023-05-08T11:04:20;26.90;1.00
1181;DHT22;579;52.046;8.532;2023-05-08T11:06:47;27.30;1.00
1181;DHT22;579;52.046;8.532;2023-05-08T11:09:21;27.30;1.00
1181;DHT22;579;52.046;8.532;2023-05-08T11:12:04;27.50;1.00
1181;DHT22;579;52.046;8.532;2023-05-08T11:14:35;27.60;1.00
1181;DHT22;579;52.046;8.532;2023-05-08T11:22:14;27.90;1.00
1181;DHT22;579;52.046;8.532;2023-05-08T11:24:51;27.70;1.00
1181;DHT22;579;52.046;8.532;2023-05-08T11:27:37;27.50;1.00
1181;DHT22;579;52.046;8.532;2023-05-08T11:30:33;27.50;1.00
1181;DHT22;579;52.046;8.532;2023-05-08T11:33:31;27.30;1.00
1181;DHT22;579;52.046;8.532;2023-05-08T11:35:59;27.50;1.00
1181;DHT22;579;52.046;8.532;2023-05-08T11:46:43;27.90;1.00
1181;DHT22;579;52.046;8.532;2023-05-08T11:49:15;27.80;1.00
1181;DHT22;579;52.046;8.532;2023-05-08T11:51:42;27.80;1.00
1181;DHT22;579;52.046;8.532;2023-05-08T11:54:12;27.80;1.00
1181;DHT22;579;52.046;8.532;2023-05-08T11:56:39;28.00;1.00
1181;DHT22;579;52.046;8.532;2023-05-08T12:01:48;28.50;1.00
1181;DHT22;579;52.046;8.532;2023-05-08T12:04:15;28.60;1.00
1181;DHT22;579;52.046;8.532;2023-05-08T12:06:41;28.20;1.00
1181;DHT22;579;52.046;8.532;2023-05-08T12:09:10;28.00;1.00
1181;DHT22;579;52.046;8.532;2023-05-08T12:11:37;27.80;1.00
1181;DHT22;579;52.046;8.532;2023-05-08T12:14:05;27.60;1.00
1181;DHT22;579;52.046;8.532;2023-05-08T12:16:34;27.40;1.00
1181;DHT22;579;52.046;8.532;2023-05-08T12:25:32;27.80;1.00
1181;DHT22;579;52.046;8.532;2023-05-08T12:27:58;27.50;1.00
1181;DHT22;579;52.046;8.532;2023-05-08T12:30:25;27.70;1.00
1181;DHT22;579;52.046;8.532;2023-05-08T12:32:51;28.10;1.00
1181;DHT22;579;52.046;8.532;2023-05-08T12:35:18;28.60;1.00
1181;DHT22;579;52.046;8.532;2023-05-08T12:37:45;29.00;1.00
1181;DHT22;579;52.046;8.532;2023-05-08T12:43:02;29.30;1.00
1181;DHT22;579;52.046;8.532;2023-05-08T12:45:29;29.10;1.00
1181;DHT22;579;52.046;8.532;2023-05-08T12:47:59;29.00;1.00
1181;DHT22;579;52.046;8.532;2023-05-08T12:50:26;29.20;1.00
1181;DHT22;579;52.046;8.532;2023-05-08T12:53:01;29.70;1.00
1181;DHT22;579;52.046;8.532;2023-05-08T12:55:29;30.60;1.00
1181;DHT22;579;52.046;8.532;2023-05-08T12:58:01;30.60;1.00
1181;DHT22;579;52.046;8.532;2023-05-08T13:07:30;29.30;1.00
1181;DHT22;579;52.046;8.532;2023-05-08T13:09:57;29.30;1.00
1181;DHT22;579;52.046;8.532;2023-05-08T13:12:25;29.30;1.00
1181;DHT22;579;52.046;8.532;2023-05-08T13:14:51;29.20;1.00
1181;DHT22;579;52.046;8.532;2023-05-08T13:17:17;29.00;1.00
1181;DHT22;579;52.046;8.532;2023-05-08T13:19:44;29.10;1.00
1181;DHT22;579;52.046;8.532;2023-05-08T13:22:10;28.90;1.00
1181;DHT22;579;52.046;8.532;2023-05-08T13:24:37;28.50;1.00
1181;DHT22;579;52.046;8.532;2023-05-08T13:29:38;27.60;1.00
1181;DHT22;579;52.046;8.532;2023-05-08T13:32:05;27.30;1.00
1181;DHT22;579;52.046;8.532;2023-05-08T13:34:31;27.40;1.00
1181;DHT22;579;52.046;8.532;2023-05-08T13:36:57;27.30;1.00
1181;DHT22;579;52.046;8.532;2023-05-08T13:39:23;27.40;1.00
1181;DHT22;579;52.046;8.532;2023-05-08T13:41:49;27.30;1.00
1181;DHT22;579;52.046;8.532;2023-05-08T13:44:15;27.40;1.00
1181;DHT22;579;52.046;8.532;2023-05-08T13:46:42;27.70;1.00
1181;DHT22;579;52.046;8.532;2023-05-08T13:49:23;28.00;1.00
1181;DHT22;579;52.046;8.532;2023-05-08T13:51:50;27.80;1.00
1181;DHT22;579;52.046;8.532;2023-05-08T13:54:16;27.80;1.00
1181;DHT22;579;52.046;8.532;2023-05-08T13:56:42;27.80;1.00
1181;DHT22;579;52.046;8.532;2023-05-08T13:59:09;28.20;1.00
1181;DHT22;579;52.046;8.532;2023-05-08T14:01:35;28.40;1.00
1181;DHT22;579;52.046;8.532;2023-05-08T14:04:02;28.40;1.00
1181;DHT22;579;52.046;8.532;2023-05-08T14:09:12;28.00;1.00
1181;DHT22;579;52.046;8.532;2023-05-08T14:11:38;27.60;1.00
1181;DHT22;579;52.046;8.532;2023-05-08T14:14:04;27.30;1.00
1181;DHT22;579;52.046;8.532;2023-05-08T14:16:31;27.00;1.00
1181;DHT22;579;52.046;8.532;2023-05-08T14:18:57;27.00;1.00
1181;DHT22;579;52.046;8.532;2023-05-08T14:21:23;26.90;1.00
1181;DHT22;579;52.046;8.532;2023-05-08T14:23:50;26.70;1.00
1181;DHT22;579;52.046;8.532;2023-05-08T14:29:00;26.40;1.00
1181;DHT22;579;52.046;8.532;2023-05-08T14:31:26;26.40;1.00
1181;DHT22;579;52.046;8.532;2023-05-08T14:33:53;26.30;1.00
1181;DHT22;579;52.046;8.532;2023-05-08T14:36:19;26.20;1.00
1181;DHT22;579;52.046;8.532;2023-05-08T14:38:45;26.20;1.00
1181;DHT22;579;52.046;8.532;2023-05-08T14:41:11;26.00;1.00
1181;DHT22;579;52.046;8.532;2023-05-08T14:43:37;25.90;1.00
1181;DHT22;579;52.046;8.532;2023-05-08T14:48:59;25.80;1.00
1181;DHT22;579;52.046;8.532;2023-05-08T14:51:25;25.90;1.00
1181;DHT22;579;52.046;8.532;2023-05-08T14:53:52;25.80;1.00
1181;DHT22;579;52.046;8.532;2023-05-08T14:56:19;25.30;1.00
1181;DHT22;579;52.046;8.532;2023-05-08T14:58:48;25.00;1.00
1181;DHT22;579;52.046;8.532;2023-05-08T15:01:14;25.10;1.00
1181;DHT22;579;52.046;8.532;2023-05-08T15:03:41;24.70;1.00
1181;DHT22;579;52.046;8.532;2023-05-08T15:06:07;24.00;1.00
1181;DHT22;579;52.046;8.532;2023-05-08T15:11:14;23.10;1.00
1181;DHT22;579;52.046;8.532;2023-05-08T15:13:40;22.90;1.00
1181;DHT22;579;52.046;8.532;2023-05-08T15:16:06;22.80;1.00
1181;DHT22;579;52.046;8.532;2023-05-08T15:18:33;22.40;1.00
1181;DHT22;579;52.046;8.532;2023-05-08T15:20:59;22.60;1.00
1181;DHT22;579;52.046;8.532;2023-05-08T15:23:25;22.30;1.00
1181;DHT22;579;52.046;8.532;2023-05-08T15:25:51;22.10;1.00
1181;DHT22;579;52.046;8.532;2023-05-08T15:28:18;22.00;1.00
1181;DHT22;579;52.046;8.532;2023-05-08T15:35:51;21.70;1.00
1181;DHT22;579;52.046;8.532;2023-05-08T15:38:18;21.40;1.00
1181;DHT22;579;52.046;8.532;2023-05-08T15:40:44;21.40;1.00
1181;DHT22;579;52.046;8.532;2023-05-08T15:43:10;21.10;1.00
1181;DHT22;579;52.046;8.532;2023-05-08T15:45:36;21.00;1.00
1181;DHT22;579;52.046;8.532;2023-05-08T15:48:03;20.80;1.00
1181;DHT22;579;52.046;8.532;2023-05-08T15:50:29;19.70;1.00
1181;DHT22;579;52.046;8.532;2023-05-08T15:55:39;20.80;1.00
1181;DHT22;579;52.046;8.532;2023-05-08T15:58:05;20.80;1.00
1181;DHT22;579;52.046;8.532;2023-05-08T16:00:31;20.80;1.00
1181;DHT22;579;52.046;8.532;2023-05-08T16:02:58;21.00;1.00
1181;DHT22;579;52.046;8.532;2023-05-08T16:05:24;21.10;1.00
1181;DHT22;579;52.046;8.532;2023-05-08T16:07:50;21.00;1.00
1181;DHT22;579;52.046;8.532;2023-05-08T16:10:18;20.80;1.00
1181;DHT22;579;52.046;8.532;2023-05-08T16:15:36;20.80;1.00
1181;DHT22;579;52.046;8.532;2023-05-08T16:18:03;20.20;1.00
1181;DHT22;579;52.046;8.532;2023-05-08T16:20:29;20.40;1.00
1181;DHT22;579;52.046;8.532;2023-05-08T16:22:55;20.10;1.00
1181;DHT22;579;52.046;8.532;2023-05-08T16:25:23;20.00;1.00
1181;DHT22;579;52.046;8.532;2023-05-08T16:27:50;19.90;1.00
1181;DHT22;579;52.046;8.532;2023-05-08T16:30:17;19.90;1.00
1181;DHT22;579;52.046;8.532;2023-05-08T16:37:48;20.00;1.00
1181;DHT22;579;52.046;8.532;2023-05-08T16:40:15;19.90;1.00
1181;DHT22;579;52.046;8.532;2023-05-08T16:42:41;20.50;1.00
1181;DHT22;579;52.046;8.532;2023-05-08T16:45:08;20.20;1.00
1181;DHT22;579;52.046;8.532;2023-05-08T16:47:35;20.20;1.00
1181;DHT22;579;52.046;8.532;2023-05-08T16:50:01;21.00;1.00
1181;DHT22;579;52.046;8.532;2023-05-08T16:52:28;21.20;1.00
1181;DHT22;579;52.046;8.532;2023-05-08T16:59:49;21.60;1.00
1181;DHT22;579;52.046;8.532;2023-05-08T17:02:16;21.50;1.00
1181;DHT22;579;52.046;8.532;2023-05-08T17:04:43;21.50;1.00
1181;DHT22;579;52.046;8.532;2023-05-08T17:07:12;21.50;1.00
1181;DHT22;579;52.046;8.532;2023-05-08T17:09:39;21.70;1.00
1181;DHT22;579;52.046;8.532;2023-05-08T17:12:06;21.30;1.00
1181;DHT22;579;52.046;8.532;2023-05-08T17:14:32;22.10;1.00
1181;DHT22;579;52.046;8.532;2023-05-08T17:19:41;21.60;1.00
1181;DHT22;579;52.046;8.532;2023-05-08T17:22:08;22.20;1.00
1181;DHT22;579;52.046;8.532;2023-05-08T17:24:34;22.10;1.00
1181;DHT22;579;52.046;8.532;2023-05-08T17:27:03;22.20;1.00
1181;DHT22;579;52.046;8.532;2023-05-08T17:29:31;22.40;1.00
1181;DHT22;579;52.046;8.532;2023-05-08T17:31:57;22.50;1.00
1181;DHT22;579;52.046;8.532;2023-05-08T17:34:24;22.50;1.00
1181;DHT22;579;52.046;8.532;2023-05-08T17:41:36;22.50;1.00
1181;DHT22;579;52.046;8.532;2023-05-08T17:44:02;22.50;1.00
1181;DHT22;579;52.046;8.532;2023-05-08T17:46:29;22.40;1.00
1181;DHT22;579;52.046;8.532;2023-05-08T17:48:55;22.20;1.00
1181;DHT22;579;52.046;8.532;2023-05-08T17:51:21;22.10;1.00
1181;DHT22;579;52.046;8.532;2023-05-08T17:53:47;22.20;1.00
1181;DHT22;579;52.046;8.532;2023-05-08T17:56:14;22.30;1.00
1181;DHT22;579;52.046;8.532;2023-05-08T18:03:51;22.30;1.00
1181;DHT22;579;52.046;8.532;2023-05-08T18:06:18;22.10;1.00
1181;DHT22;579;52.046;8.532;2023-05-08T18:08:45;22.00;1.00
1181;DHT22;579;52.046;8.532;2023-05-08T18:11:15;21.80;1.00
1181;DHT22;579;52.046;8.532;2023-05-08T18:13:42;21.80;1.00
1181;DHT22;579;52.046;8.532;2023-05-08T18:16:08;21.60;1.00
1181;DHT22;579;52.046;8.532;2023-05-08T18:18:35;21.70;1.00
1181;DHT22;579;52.046;8.532;2023-05-08T18:24:35;21.70;1.00
1181;DHT22;579;52.046;8.532;2023-05-08T18:27:01;21.80;1.00
1181;DHT22;579;52.046;8.532;2023-05-08T18:29:27;21.70;1.00
1181;DHT22;579;52.046;8.532;2023-05-08T18:31:54;21.70;1.00
1181;DHT22;579;52.046;8.532;2023-05-08T18:34:20;21.70;1.00
1181;DHT22;579;52.046;8.532;2023-05-08T18:36:46;21.50;1.00
1181;DHT22;579;52.046;8.532;2023-05-08T18:39:12;21.50;1.00
1181;DHT22;579;52.046;8.532;2023-05-08T18:46:33;21.30;1.00
1181;DHT22;579;52.046;8.532;2023-05-08T18:49:00;21.00;1.00
1181;DHT22;579;52.046;8.532;2023-05-08T18:51:26;21.00;1.00
1181;DHT22;579;52.046;8.532;2023-05-08T18:53:52;20.60;1.00
1181;DHT22;579;52.046;8.532;2023-05-08T18:56:21;20.50;1.00
1181;DHT22;579;52.046;8.532;2023-05-08T18:58:47;20.50;1.00
1181;DHT22;579;52.046;8.532;2023-05-08T19:01:14;20.30;1.00
1181;DHT22;579;52.046;8.532;2023-05-08T19:06:22;20.30;1.00
1181;DHT22;579;52.046;8.532;2023-05-08T19:08:49;20.20;1.00
1181;DHT22;579;52.046;8.532;2023-05-08T19:11:16;20.20;1.00
1181;DHT22;579;52.046;8.532;2023-05-08T19:13:42;20.20;1.00
1181;DHT22;579;52.046;8.532;2023-05-08T19:16:08;20.10;1.00
1181;DHT22;579;52.046;8.532;2023-05-08T19:18:35;20.10;1.00
1181;DHT22;579;52.046;8.532;2023-05-08T19:21:01;20.00;1.00
1181;DHT22;579;52.046;8.532;2023-05-08T19:27:05;20.00;1.00
1181;DHT22;579;52.046;8.532;2023-05-08T19:29:31;20.00;1.00
1181;DHT22;579;52.046;8.532;2023-05-08T19:31:57;20.10;1.00
1181;DHT22;579;52.046;8.532;2023-05-08T19:34:24;20.00;1.00
1181;DHT22;579;52.046;8.532;2023-05-08T19:36:50;19.90;1.00
1181;DHT22;579;52.046;8.532;2023-05-08T19:39:16;19.90;1.00
1181;DHT22;579;52.046;8.532;2023-05-08T19:41:43;19.80;1.00
1181;DHT22;579;52.046;8.532;2023-05-08T19:44:19;19.60;1.00
1181;DHT22;579;52.046;8.532;2023-05-08T19:50:33;19.60;1.00
1181;DHT22;579;52.046;8.532;2023-05-08T19:52:59;19.40;1.00
1181;DHT22;579;52.046;8.532;2023-05-08T19:55:25;19.30;1.00
1181;DHT22;579;52.046;8.532;2023-05-08T19:57:52;19.30;1.00
1181;DHT22;579;52.046;8.532;2023-05-08T20:00:18;19.10;1.00
1181;DHT22;579;52.046;8.532;2023-05-08T20:02:44;19.20;1.00
1181;DHT22;579;52.046;8.532;2023-05-08T20:05:10;19.00;1.00
1181;DHT22;579;52.046;8.532;2023-05-08T20:07:38;18.80;1.00
1181;DHT22;579;52.046;8.532;2023-05-08T20:14:39;18.80;1.00
1181;DHT22;579;52.046;8.532;2023-05-08T20:17:05;18.70;1.00
1181;DHT22;579;52.046;8.532;2023-05-08T20:19:31;18.60;1.00
1181;DHT22;579;52.046;8.532;2023-05-08T20:21:58;18.60;1.00
1181;DHT22;579;52.046;8.532;2023-05-08T20:24:24;18.50;1.00
1181;DHT22;579;52.046;8.532;2023-05-08T20:26:50;18.40;1.00
1181;DHT22;579;52.046;8.532;2023-05-08T20:29:19;18.40;1.00
1181;DHT22;579;52.046;8.532;2023-05-08T20:36:51;18.30;1.00
1181;DHT22;579;52.046;8.532;2023-05-08T20:39:17;18.10;1.00